sensor_id;sensor_type;location;lat;lon;timestamp;P1;durP1;ratioP1;P2;durP2;ratioP2
10450;SDS011;5273;51.290;6.918;2024-02-21T00:01:32;21.37;;;9.13;;
10450;SDS011;5273;51.290;6.918;2024-02-21T00:03:59;21.33;;;9.50;;
10450;SDS011;5273;51.290;6.918;2024-02-21T00:06:27;22.03;;;9.60;;
10450;SDS011;5273;51.290;6.918;2024-02-21T00:08:54;23.07;;;8.87;;
10450;SDS011;5273;51.290;6.918;2024-02-21T00:11:21;23.23;;;9.93;;
10450;SDS011;5273;51.290;6.918;2024-02-21T00:13:48;22.30;;;9.30;;
10450;SDS011;5273;51.290;6.918;2024-02-21T00:16:15;20.57;;;9.20;;
10450;SDS011;5273;51.290;6.918;2024-02-21T00:18:43;21.20;;;9.37;;
10450;SDS011;5273;51.290;6.918;2024-02-21T00:21:10;21.73;;;9.33;;
10450;SDS011;5273;51.290;6.918;2024-02-21T00:23:44;19.67;;;9.10;;
10450;SDS011;5273;51.290;6.918;2024-02-21T00:26:12;20.33;;;9.40;;
10450;SDS011;5273;51.290;6.918;2024-02-21T00:28:39;22.63;;;9.17;;
10450;SDS011;5273;51.290;6.918;2024-02-21T00:31:06;17.27;;;8.43;;
10450;SDS011;5273;51.290;6.918;2024-02-21T00:33:34;24.73;;;9.27;;
10450;SDS011;5273;51.290;6.918;2024-02-21T00:36:01;17.83;;;8.53;;
10450;SDS011;5273;51.290;6.918;2024-02-21T00:38:28;20.97;;;8.13;;
10450;SDS011;5273;51.290;6.918;2024-02-21T00:40:57;22.33;;;9.03;;
10450;SDS011;5273;51.290;6.918;2024-02-21T00:43:23;23.93;;;9.63;;
10450;SDS011;5273;51.290;6.918;2024-02-21T00:45:51;21.10;;;8.63;;
10450;SDS011;5273;51.290;6.918;2024-02-21T00:48:18;25.40;;;11.33;;
10450;SDS011;5273;51.290;6.918;2024-02-21T00:50:45;19.83;;;9.03;;
10450;SDS011;5273;51.290;6.918;2024-02-21T00:53:13;25.30;;;9.43;;
10450;SDS011;5273;51.290;6.918;2024-02-21T00:55:40;25.73;;;9.77;;
10450;SDS011;5273;51.290;6.918;2024-02-21T00:58:09;17.63;;;9.00;;
10450;SDS011;5273;51.290;6.918;2024-02-21T01:00:36;22.30;;;8.47;;
10450;SDS011;5273;51.290;6.918;2024-02-21T01:03:03;23.33;;;8.90;;
10450;SDS011;5273;51.290;6.918;2024-02-21T01:05:30;23.37;;;9.47;;
10450;SDS011;5273;51.290;6.918;2024-02-21T01:07:58;23.53;;;8.87;;
10450;SDS011;5273;51.290;6.918;2024-02-21T01:10:24;23.60;;;8.70;;
10450;SDS011;5273;51.290;6.918;2024-02-21T01:12:51;20.67;;;9.30;;
10450;SDS011;5273;51.290;6.918;2024-02-21T01:15:20;19.40;;;9.07;;
10450;SDS011;5273;51.290;6.918;2024-02-21T01:17:47;22.50;;;10.13;;
10450;SDS011;5273;51.290;6.918;2024-02-21T01:20:14;23.40;;;9.13;;
10450;SDS011;5273;51.290;6.918;2024-02-21T01:22:42;20.90;;;8.57;;
10450;SDS011;5273;51.290;6.918;2024-02-21T01:25:09;20.20;;;9.33;;
10450;SDS011;5273;51.290;6.918;2024-02-21T01:27:36;21.53;;;9.87;;
10450;SDS011;5273;51.290;6.918;2024-02-21T01:30:04;19.57;;;9.60;;
10450;SDS011;5273;51.290;6.918;2024-02-21T01:32:33;19.87;;;9.00;;
10450;SDS011;5273;51.290;6.918;2024-02-21T01:35:00;22.83;;;9.43;;
10450;SDS011;5273;51.290;6.918;2024-02-21T01:37:27;18.93;;;9.30;;
10450;SDS011;5273;51.290;6.918;2024-02-21T01:39:54;24.37;;;10.17;;
10450;SDS011;5273;51.290;6.918;2024-02-21T01:42:21;24.07;;;9.73;;
10450;SDS011;5273;51.290;6.918;2024-02-21T01:44:48;22.93;;;9.63;;
10450;SDS011;5273;51.290;6.918;2024-02-21T01:47:16;19.83;;;9.43;;
10450;SDS011;5273;51.290;6.918;2024-02-21T01:49:44;20.87;;;9.57;;
10450;SDS011;5273;51.290;6.918;2024-02-21T01:52:11;23.00;;;10.10;;
10450;SDS011;5273;51.290;6.918;2024-02-21T01:54:42;24.40;;;9.23;;
10450;SDS011;5273;51.290;6.918;2024-02-21T01:57:09;27.20;;;9.63;;
10450;SDS011;5273;51.290;6.918;2024-02-21T01:59:37;24.33;;;9.07;;
10450;SDS011;5273;51.290;6.918;2024-02-21T02:02:04;24.90;;;10.33;;
10450;SDS011;5273;51.290;6.918;2024-02-21T02:04:31;21.37;;;9.03;;
10450;SDS011;5273;51.290;6.918;2024-02-21T02:07:00;19.10;;;8.80;;
10450;SDS011;5273;51.290;6.918;2024-02-21T02:09:30;22.00;;;9.53;;
10450;SDS011;5273;51.290;6.918;2024-02-21T02:11:56;21.33;;;8.97;;
10450;SDS011;5273;51.290;6.918;2024-02-21T02:14:24;25.63;;;8.67;;
10450;SDS011;5273;51.290;6.918;2024-02-21T02:16:51;19.87;;;8.57;;
10450;SDS011;5273;51.290;6.918;2024-02-21T02:19:18;18.23;;;8.10;;
10450;SDS011;5273;51.290;6.918;2024-02-21T02:21:46;15.50;;;7.87;;
10450;SDS011;5273;51.290;6.918;2024-02-21T02:24:19;23.43;;;7.77;;
10450;SDS011;5273;51.290;6.918;2024-02-21T02:26:47;21.87;;;8.77;;
10450;SDS011;5273;51.290;6.918;2024-02-21T02:29:14;16.67;;;8.23;;
10450;SDS011;5273;51.290;6.918;2024-02-21T02:31:41;21.83;;;8.73;;
10450;SDS011;5273;51.290;6.918;2024-02-21T02:34:08;21.17;;;8.10;;
10450;SDS011;5273;51.290;6.918;2024-02-21T02:36:36;25.53;;;8.60;;
10450;SDS011;5273;51.290;6.918;2024-02-21T02:39:02;23.97;;;9.07;;
10450;SDS011;5273;51.290;6.918;2024-02-21T02:41:31;15.70;;;8.00;;
10450;SDS011;5273;51.290;6.918;2024-02-21T02:44:00;20.03;;;7.53;;
10450;SDS011;5273;51.290;6.918;2024-02-21T02:46:27;20.27;;;8.13;;
10450;SDS011;5273;51.290;6.918;2024-02-21T02:48:54;23.43;;;8.63;;
10450;SDS011;5273;51.290;6.918;2024-02-21T02:51:21;20.90;;;8.73;;
10450;SDS011;5273;51.290;6.918;2024-02-21T02:53:48;19.77;;;8.50;;
10450;SDS011;5273;51.290;6.918;2024-02-21T02:56:16;21.13;;;8.27;;
10450;SDS011;5273;51.290;6.918;2024-02-21T02:58:44;20.13;;;9.40;;
10450;SDS011;5273;51.290;6.918;2024-02-21T03:01:11;18.57;;;8.83;;
10450;SDS011;5273;51.290;6.918;2024-02-21T03:03:38;16.50;;;7.60;;
10450;SDS011;5273;51.290;6.918;2024-02-21T03:06:05;25.87;;;8.60;;
10450;SDS011;5273;51.290;6.918;2024-02-21T03:08:33;27.87;;;8.30;;
10450;SDS011;5273;51.290;6.918;2024-02-21T03:11:00;18.40;;;8.40;;
10450;SDS011;5273;51.290;6.918;2024-02-21T03:13:27;18.23;;;8.37;;
10450;SDS011;5273;51.290;6.918;2024-02-21T03:15:55;19.00;;;8.50;;
10450;SDS011;5273;51.290;6.918;2024-02-21T03:18:22;17.20;;;7.37;;
10450;SDS011;5273;51.290;6.918;2024-02-21T03:20:49;16.73;;;7.40;;
10450;SDS011;5273;51.290;6.918;2024-02-21T03:23:16;18.00;;;8.93;;
10450;SDS011;5273;51.290;6.918;2024-02-21T03:25:43;19.80;;;8.00;;
10450;SDS011;5273;51.290;6.918;2024-02-21T03:28:10;18.37;;;8.23;;
10450;SDS011;5273;51.290;6.918;2024-02-21T03:30:38;19.33;;;7.70;;
10450;SDS011;5273;51.290;6.918;2024-02-21T03:33:06;17.83;;;8.80;;
10450;SDS011;5273;51.290;6.918;2024-02-21T03:35:32;22.97;;;8.93;;
10450;SDS011;5273;51.290;6.918;2024-02-21T03:37:59;19.57;;;8.17;;
10450;SDS011;5273;51.290;6.918;2024-02-21T03:40:27;17.70;;;8.00;;
10450;SDS011;5273;51.290;6.918;2024-02-21T03:42:54;18.63;;;7.90;;
10450;SDS011;5273;51.290;6.918;2024-02-21T03:45:21;19.63;;;8.13;;
10450;SDS011;5273;51.290;6.918;2024-02-21T03:47:48;14.43;;;7.47;;
10450;SDS011;5273;51.290;6.918;2024-02-21T03:50:17;16.17;;;7.20;;
10450;SDS011;5273;51.290;6.918;2024-02-21T03:52:44;19.00;;;7.93;;
10450;SDS011;5273;51.290;6.918;2024-02-21T03:55:11;21.50;;;7.67;;
10450;SDS011;5273;51.290;6.918;2024-02-21T03:57:38;16.43;;;7.03;;
10450;SDS011;5273;51.290;6.918;2024-02-21T04:00:05;17.33;;;8.07;;
10450;SDS011;5273;51.290;6.918;2024-02-21T04:02:35;15.40;;;7.63;;
10450;SDS011;5273;51.290;6.918;2024-02-21T04:05:03;16.47;;;7.47;;
10450;SDS011;5273;51.290;6.918;2024-02-21T04:07:32;15.63;;;7.63;;
10450;SDS011;5273;51.290;6.918;2024-02-21T04:09:59;17.67;;;7.37;;
10450;SDS011;5273;51.290;6.918;2024-02-21T04:12:26;14.03;;;7.30;;
10450;SDS011;5273;51.290;6.918;2024-02-21T04:14:53;12.97;;;6.70;;
10450;SDS011;5273;51.290;6.918;2024-02-21T04:17:20;15.17;;;7.33;;
10450;SDS011;5273;51.290;6.918;2024-02-21T04:19:47;16.50;;;7.87;;
10450;SDS011;5273;51.290;6.918;2024-02-21T04:22:14;14.33;;;6.50;;
10450;SDS011;5273;51.290;6.918;2024-02-21T04:24:43;13.50;;;7.30;;
10450;SDS011;5273;51.290;6.918;2024-02-21T04:27:09;23.70;;;7.50;;
10450;SDS011;5273;51.290;6.918;2024-02-21T04:29:36;16.47;;;7.60;;
10450;SDS011;5273;51.290;6.918;2024-02-21T04:32:04;18.87;;;6.83;;
10450;SDS011;5273;51.290;6.918;2024-02-21T04:34:31;15.57;;;6.83;;
10450;SDS011;5273;51.290;6.918;2024-02-21T04:36:58;13.20;;;6.67;;
10450;SDS011;5273;51.290;6.918;2024-02-21T04:39:25;14.67;;;6.93;;
10450;SDS011;5273;51.290;6.918;2024-02-21T04:41:54;12.93;;;6.27;;
10450;SDS011;5273;51.290;6.918;2024-02-21T04:44:21;14.47;;;6.53;;
10450;SDS011;5273;51.290;6.918;2024-02-21T04:46:48;11.77;;;6.53;;
10450;SDS011;5273;51.290;6.918;2024-02-21T04:49:15;12.80;;;6.70;;
10450;SDS011;5273;51.290;6.918;2024-02-21T04:51:42;14.50;;;6.67;;
10450;SDS011;5273;51.290;6.918;2024-02-21T04:54:09;13.53;;;6.67;;
10450;SDS011;5273;51.290;6.918;2024-02-21T04:56:36;19.73;;;7.00;;
10450;SDS011;5273;51.290;6.918;2024-02-21T04:59:05;15.73;;;6.37;;
10450;SDS011;5273;51.290;6.918;2024-02-21T05:01:32;17.30;;;6.93;;
10450;SDS011;5273;51.290;6.918;2024-02-21T05:03:59;13.10;;;6.70;;
10450;SDS011;5273;51.290;6.918;2024-02-21T05:06:26;16.90;;;6.50;;
10450;SDS011;5273;51.290;6.918;2024-02-21T05:08:53;19.90;;;7.40;;
10450;SDS011;5273;51.290;6.918;2024-02-21T05:11:22;13.63;;;7.07;;
10450;SDS011;5273;51.290;6.918;2024-02-21T05:13:50;14.50;;;6.60;;
10450;SDS011;5273;51.290;6.918;2024-02-21T05:16:18;14.87;;;6.30;;
10450;SDS011;5273;51.290;6.918;2024-02-21T05:18:45;15.73;;;6.43;;
10450;SDS011;5273;51.290;6.918;2024-02-21T05:21:12;13.73;;;6.70;;
10450;SDS011;5273;51.290;6.918;2024-02-21T05:23:39;14.17;;;6.37;;
10450;SDS011;5273;51.290;6.918;2024-02-21T05:26:06;14.10;;;6.33;;
10450;SDS011;5273;51.290;6.918;2024-02-21T05:28:33;15.17;;;6.70;;
10450;SDS011;5273;51.290;6.918;2024-02-21T05:31:00;16.03;;;7.33;;
10450;SDS011;5273;51.290;6.918;2024-02-21T05:33:29;16.67;;;5.83;;
10450;SDS011;5273;51.290;6.918;2024-02-21T05:35:55;21.40;;;7.83;;
10450;SDS011;5273;51.290;6.918;2024-02-21T05:38:23;13.20;;;6.80;;
10450;SDS011;5273;51.290;6.918;2024-02-21T05:40:50;13.43;;;6.10;;
10450;SDS011;5273;51.290;6.918;2024-02-21T05:43:17;14.30;;;5.80;;
10450;SDS011;5273;51.290;6.918;2024-02-21T05:45:44;11.77;;;5.63;;
10450;SDS011;5273;51.290;6.918;2024-02-21T05:48:11;11.70;;;5.87;;
10450;SDS011;5273;51.290;6.918;2024-02-21T05:50:39;14.60;;;6.87;;
10450;SDS011;5273;51.290;6.918;2024-02-21T05:53:06;11.80;;;5.27;;
10450;SDS011;5273;51.290;6.918;2024-02-21T05:55:33;13.37;;;5.50;;
10450;SDS011;5273;51.290;6.918;2024-02-21T05:58:00;12.33;;;5.73;;
10450;SDS011;5273;51.290;6.918;2024-02-21T06:00:28;12.77;;;6.00;;
10450;SDS011;5273;51.290;6.918;2024-02-21T06:02:54;12.87;;;5.87;;
10450;SDS011;5273;51.290;6.918;2024-02-21T06:05:21;9.43;;;5.37;;
10450;SDS011;5273;51.290;6.918;2024-02-21T06:07:50;10.63;;;5.17;;
10450;SDS011;5273;51.290;6.918;2024-02-21T06:10:17;13.30;;;5.03;;
10450;SDS011;5273;51.290;6.918;2024-02-21T06:12:44;13.90;;;5.33;;
10450;SDS011;5273;51.290;6.918;2024-02-21T06:15:11;10.90;;;5.53;;
10450;SDS011;5273;51.290;6.918;2024-02-21T06:17:38;15.30;;;6.03;;
10450;SDS011;5273;51.290;6.918;2024-02-21T06:20:06;10.20;;;4.93;;
10450;SDS011;5273;51.290;6.918;2024-02-21T06:22:33;14.50;;;5.37;;
10450;SDS011;5273;51.290;6.918;2024-02-21T06:25:02;15.63;;;5.60;;
10450;SDS011;5273;51.290;6.918;2024-02-21T06:27:29;9.77;;;4.70;;
10450;SDS011;5273;51.290;6.918;2024-02-21T06:29:56;12.03;;;5.33;;
10450;SDS011;5273;51.290;6.918;2024-02-21T06:32:23;8.17;;;4.87;;
10450;SDS011;5273;51.290;6.918;2024-02-21T06:34:50;13.13;;;4.87;;
10450;SDS011;5273;51.290;6.918;2024-02-21T06:37:17;12.73;;;5.20;;
10450;SDS011;5273;51.290;6.918;2024-02-21T06:39:44;10.47;;;4.87;;
10450;SDS011;5273;51.290;6.918;2024-02-21T06:42:13;13.07;;;4.90;;
10450;SDS011;5273;51.290;6.918;2024-02-21T06:44:39;12.47;;;4.80;;
10450;SDS011;5273;51.290;6.918;2024-02-21T06:47:07;11.27;;;5.10;;
10450;SDS011;5273;51.290;6.918;2024-02-21T06:49:34;10.30;;;4.87;;
10450;SDS011;5273;51.290;6.918;2024-02-21T06:52:02;8.00;;;5.03;;
10450;SDS011;5273;51.290;6.918;2024-02-21T06:54:29;12.30;;;4.30;;
10450;SDS011;5273;51.290;6.918;2024-02-21T06:56:56;13.77;;;5.43;;
10450;SDS011;5273;51.290;6.918;2024-02-21T06:59:25;13.37;;;5.40;;
10450;SDS011;5273;51.290;6.918;2024-02-21T07:01:52;10.63;;;4.80;;
10450;SDS011;5273;51.290;6.918;2024-02-21T07:04:20;12.47;;;5.87;;
10450;SDS011;5273;51.290;6.918;2024-02-21T07:06:47;10.73;;;5.10;;
10450;SDS011;5273;51.290;6.918;2024-02-21T07:09:14;10.70;;;5.77;;
10450;SDS011;5273;51.290;6.918;2024-02-21T07:11:41;10.37;;;5.20;;
10450;SDS011;5273;51.290;6.918;2024-02-21T07:14:08;9.30;;;4.93;;
10450;SDS011;5273;51.290;6.918;2024-02-21T07:16:37;13.23;;;5.30;;
10450;SDS011;5273;51.290;6.918;2024-02-21T07:19:04;10.47;;;5.00;;
10450;SDS011;5273;51.290;6.918;2024-02-21T07:21:31;10.20;;;4.53;;
10450;SDS011;5273;51.290;6.918;2024-02-21T07:23:58;10.00;;;5.00;;
10450;SDS011;5273;51.290;6.918;2024-02-21T07:26:25;10.80;;;4.77;;
10450;SDS011;5273;51.290;6.918;2024-02-21T07:28:52;10.80;;;5.37;;
10450;SDS011;5273;51.290;6.918;2024-02-21T07:31:19;8.23;;;5.07;;
10450;SDS011;5273;51.290;6.918;2024-02-21T07:33:48;9.50;;;4.70;;
10450;SDS011;5273;51.290;6.918;2024-02-21T07:36:15;9.60;;;4.83;;
10450;SDS011;5273;51.290;6.918;2024-02-21T07:38:42;9.73;;;4.70;;
10450;SDS011;5273;51.290;6.918;2024-02-21T07:41:09;11.53;;;4.40;;
10450;SDS011;5273;51.290;6.918;2024-02-21T07:43:36;12.77;;;4.27;;
10450;SDS011;5273;51.290;6.918;2024-02-21T07:46:03;11.57;;;3.97;;
10450;SDS011;5273;51.290;6.918;2024-02-21T07:48:31;10.10;;;3.87;;
10450;SDS011;5273;51.290;6.918;2024-02-21T07:50:59;9.43;;;4.03;;
10450;SDS011;5273;51.290;6.918;2024-02-21T07:53:26;8.70;;;3.93;;
10450;SDS011;5273;51.290;6.918;2024-02-21T07:55:53;8.57;;;3.70;;
10450;SDS011;5273;51.290;6.918;2024-02-21T07:58:20;9.77;;;4.00;;
10450;SDS011;5273;51.290;6.918;2024-02-21T08:00:47;6.80;;;4.27;;
10450;SDS011;5273;51.290;6.918;2024-02-21T08:03:14;8.30;;;4.13;;
10450;SDS011;5273;51.290;6.918;2024-02-21T08:05:42;10.57;;;4.27;;
10450;SDS011;5273;51.290;6.918;2024-02-21T08:08:11;9.73;;;3.70;;
10450;SDS011;5273;51.290;6.918;2024-02-21T08:10:43;12.30;;;4.10;;
10450;SDS011;5273;51.290;6.918;2024-02-21T08:13:10;9.43;;;3.90;;
10450;SDS011;5273;51.290;6.918;2024-02-21T08:15:37;9.50;;;3.67;;
10450;SDS011;5273;51.290;6.918;2024-02-21T08:18:06;8.47;;;3.57;;
10450;SDS011;5273;51.290;6.918;2024-02-21T08:20:33;10.37;;;4.07;;
10450;SDS011;5273;51.290;6.918;2024-02-21T08:23:01;7.43;;;3.50;;
10450;SDS011;5273;51.290;6.918;2024-02-21T08:25:31;15.10;;;4.17;;
10450;SDS011;5273;51.290;6.918;2024-02-21T08:27:58;9.43;;;4.10;;
10450;SDS011;5273;51.290;6.918;2024-02-21T08:30:25;7.27;;;4.03;;
10450;SDS011;5273;51.290;6.918;2024-02-21T08:32:52;10.90;;;4.10;;
10450;SDS011;5273;51.290;6.918;2024-02-21T08:35:20;7.60;;;3.90;;
10450;SDS011;5273;51.290;6.918;2024-02-21T08:37:47;10.63;;;3.63;;
10450;SDS011;5273;51.290;6.918;2024-02-21T08:40:15;15.63;;;4.33;;
10450;SDS011;5273;51.290;6.918;2024-02-21T08:42:47;12.13;;;4.00;;
10450;SDS011;5273;51.290;6.918;2024-02-21T08:45:14;15.13;;;4.43;;
10450;SDS011;5273;51.290;6.918;2024-02-21T08:47:42;8.03;;;3.83;;
10450;SDS011;5273;51.290;6.918;2024-02-21T08:50:09;7.63;;;4.50;;
10450;SDS011;5273;51.290;6.918;2024-02-21T08:52:37;10.63;;;4.40;;
10450;SDS011;5273;51.290;6.918;2024-02-21T08:55:04;9.80;;;4.50;;
10450;SDS011;5273;51.290;6.918;2024-02-21T08:57:32;14.03;;;5.20;;
10450;SDS011;5273;51.290;6.918;2024-02-21T09:00:03;10.17;;;4.63;;
10450;SDS011;5273;51.290;6.918;2024-02-21T09:02:34;10.27;;;4.20;;
10450;SDS011;5273;51.290;6.918;2024-02-21T09:05:03;10.90;;;4.77;;
10450;SDS011;5273;51.290;6.918;2024-02-21T09:07:31;16.93;;;5.13;;
10450;SDS011;5273;51.290;6.918;2024-02-21T09:09:58;14.07;;;4.40;;
10450;SDS011;5273;51.290;6.918;2024-02-21T09:12:25;12.93;;;4.57;;
10450;SDS011;5273;51.290;6.918;2024-02-21T09:14:52;13.67;;;5.03;;
10450;SDS011;5273;51.290;6.918;2024-02-21T09:17:21;9.50;;;4.50;;
10450;SDS011;5273;51.290;6.918;2024-02-21T09:19:50;10.93;;;4.67;;
10450;SDS011;5273;51.290;6.918;2024-02-21T09:22:17;18.33;;;4.83;;
10450;SDS011;5273;51.290;6.918;2024-02-21T09:24:44;13.33;;;5.03;;
10450;SDS011;5273;51.290;6.918;2024-02-21T09:27:12;9.00;;;4.30;;
10450;SDS011;5273;51.290;6.918;2024-02-21T09:29:39;11.43;;;4.70;;
10450;SDS011;5273;51.290;6.918;2024-02-21T09:32:06;15.63;;;4.80;;
10450;SDS011;5273;51.290;6.918;2024-02-21T09:34:35;9.07;;;5.17;;
10450;SDS011;5273;51.290;6.918;2024-02-21T09:37:01;15.47;;;5.40;;
10450;SDS011;5273;51.290;6.918;2024-02-21T09:39:29;12.00;;;5.07;;
10450;SDS011;5273;51.290;6.918;2024-02-21T09:41:58;11.30;;;4.90;;
10450;SDS011;5273;51.290;6.918;2024-02-21T09:44:34;13.53;;;5.30;;
10450;SDS011;5273;51.290;6.918;2024-02-21T09:47:04;12.57;;;5.17;;
10450;SDS011;5273;51.290;6.918;2024-02-21T09:49:38;12.63;;;5.33;;
10450;SDS011;5273;51.290;6.918;2024-02-21T09:52:08;15.40;;;5.20;;
10450;SDS011;5273;51.290;6.918;2024-02-21T09:54:36;10.93;;;5.70;;
10450;SDS011;5273;51.290;6.918;2024-02-21T09:57:05;10.10;;;5.17;;
10450;SDS011;5273;51.290;6.918;2024-02-21T09:59:32;11.77;;;4.93;;
10450;SDS011;5273;51.290;6.918;2024-02-21T10:02:00;12.70;;;5.00;;
10450;SDS011;5273;51.290;6.918;2024-02-21T10:04:27;11.73;;;4.60;;
10450;SDS011;5273;51.290;6.918;2024-02-21T10:06:56;10.43;;;4.63;;
10450;SDS011;5273;51.290;6.918;2024-02-21T10:09:23;10.67;;;4.63;;
10450;SDS011;5273;51.290;6.918;2024-02-21T10:11:52;9.97;;;5.40;;
10450;SDS011;5273;51.290;6.918;2024-02-21T10:14:20;10.67;;;4.63;;
10450;SDS011;5273;51.290;6.918;2024-02-21T10:16:47;9.27;;;5.13;;
10450;SDS011;5273;51.290;6.918;2024-02-21T10:19:17;11.17;;;5.00;;
10450;SDS011;5273;51.290;6.918;2024-02-21T10:21:58;10.47;;;4.40;;
10450;SDS011;5273;51.290;6.918;2024-02-21T10:24:29;12.37;;;4.80;;
10450;SDS011;5273;51.290;6.918;2024-02-21T10:27:03;10.33;;;4.67;;
10450;SDS011;5273;51.290;6.918;2024-02-21T10:29:33;7.70;;;4.50;;
10450;SDS011;5273;51.290;6.918;2024-02-21T10:32:04;6.77;;;4.60;;
10450;SDS011;5273;51.290;6.918;2024-02-21T10:34:32;7.07;;;4.50;;
10450;SDS011;5273;51.290;6.918;2024-02-21T10:37:01;9.30;;;4.23;;
10450;SDS011;5273;51.290;6.918;2024-02-21T10:39:29;8.73;;;4.23;;
10450;SDS011;5273;51.290;6.918;2024-02-21T10:41:56;8.17;;;5.00;;
10450;SDS011;5273;51.290;6.918;2024-02-21T10:44:26;9.53;;;4.20;;
10450;SDS011;5273;51.290;6.918;2024-02-21T10:46:55;7.93;;;3.73;;
10450;SDS011;5273;51.290;6.918;2024-02-21T10:49:23;7.00;;;3.93;;
10450;SDS011;5273;51.290;6.918;2024-02-21T10:51:53;7.07;;;3.83;;
10450;SDS011;5273;51.290;6.918;2024-02-21T10:54:29;6.17;;;3.50;;
10450;SDS011;5273;51.290;6.918;2024-02-21T10:57:05;5.73;;;3.57;;
10450;SDS011;5273;51.290;6.918;2024-02-21T10:59:34;5.87;;;3.30;;
10450;SDS011;5273;51.290;6.918;2024-02-21T11:02:03;9.43;;;3.70;;
10450;SDS011;5273;51.290;6.918;2024-02-21T11:04:30;7.67;;;3.67;;
10450;SDS011;5273;51.290;6.918;2024-02-21T11:07:01;7.67;;;3.60;;
10450;SDS011;5273;51.290;6.918;2024-02-21T11:09:30;6.60;;;3.67;;
10450;SDS011;5273;51.290;6.918;2024-02-21T11:11:58;7.13;;;3.63;;
10450;SDS011;5273;51.290;6.918;2024-02-21T11:14:28;11.30;;;3.97;;
10450;SDS011;5273;51.290;6.918;2024-02-21T11:16:57;5.83;;;3.43;;
10450;SDS011;5273;51.290;6.918;2024-02-21T11:19:25;6.17;;;3.50;;
10450;SDS011;5273;51.290;6.918;2024-02-21T11:21:53;5.90;;;3.30;;
10450;SDS011;5273;51.290;6.918;2024-02-21T11:24:25;5.97;;;2.73;;
10450;SDS011;5273;51.290;6.918;2024-02-21T11:26:55;7.73;;;3.50;;
10450;SDS011;5273;51.290;6.918;2024-02-21T11:29:25;4.17;;;3.00;;
10450;SDS011;5273;51.290;6.918;2024-02-21T11:31:53;13.02;;;3.90;;
10450;SDS011;5273;51.290;6.918;2024-02-21T11:34:21;8.30;;;3.33;;
10450;SDS011;5273;51.290;6.918;2024-02-21T11:36:48;7.63;;;3.37;;
10450;SDS011;5273;51.290;6.918;2024-02-21T11:39:19;6.53;;;4.00;;
10450;SDS011;5273;51.290;6.918;2024-02-21T11:41:47;7.63;;;3.30;;
10450;SDS011;5273;51.290;6.918;2024-02-21T11:44:15;5.90;;;3.03;;
10450;SDS011;5273;51.290;6.918;2024-02-21T11:46:42;11.57;;;3.60;;
10450;SDS011;5273;51.290;6.918;2024-02-21T11:49:09;10.23;;;3.33;;
10450;SDS011;5273;51.290;6.918;2024-02-21T11:51:37;7.90;;;3.03;;
10450;SDS011;5273;51.290;6.918;2024-02-21T11:54:03;6.27;;;3.33;;
10450;SDS011;5273;51.290;6.918;2024-02-21T11:56:32;8.63;;;3.20;;
10450;SDS011;5273;51.290;6.918;2024-02-21T11:58:59;4.93;;;3.13;;
10450;SDS011;5273;51.290;6.918;2024-02-21T12:01:27;11.90;;;3.35;;
10450;SDS011;5273;51.290;6.918;2024-02-21T12:03:54;7.32;;;3.53;;
10450;SDS011;5273;51.290;6.918;2024-02-21T12:06:21;7.73;;;3.03;;
10450;SDS011;5273;51.290;6.918;2024-02-21T12:08:48;6.23;;;2.77;;
10450;SDS011;5273;51.290;6.918;2024-02-21T12:11:15;9.33;;;3.23;;
10450;SDS011;5273;51.290;6.918;2024-02-21T12:13:44;6.30;;;2.40;;
10450;SDS011;5273;51.290;6.918;2024-02-21T12:16:10;7.83;;;3.20;;
10450;SDS011;5273;51.290;6.918;2024-02-21T12:18:40;8.33;;;2.90;;
10450;SDS011;5273;51.290;6.918;2024-02-21T12:21:07;8.77;;;3.37;;
10450;SDS011;5273;51.290;6.918;2024-02-21T12:23:34;8.23;;;3.07;;
10450;SDS011;5273;51.290;6.918;2024-02-21T12:26:01;6.67;;;2.80;;
10450;SDS011;5273;51.290;6.918;2024-02-21T12:28:30;7.10;;;3.30;;
10450;SDS011;5273;51.290;6.918;2024-02-21T12:30:57;8.37;;;2.77;;
10450;SDS011;5273;51.290;6.918;2024-02-21T12:33:24;8.83;;;3.20;;
10450;SDS011;5273;51.290;6.918;2024-02-21T12:35:52;3.70;;;2.30;;
10450;SDS011;5273;51.290;6.918;2024-02-21T12:38:20;7.03;;;3.10;;
10450;SDS011;5273;51.290;6.918;2024-02-21T12:40:46;6.53;;;2.53;;
10450;SDS011;5273;51.290;6.918;2024-02-21T12:43:13;4.43;;;2.33;;
10450;SDS011;5273;51.290;6.918;2024-02-21T12:45:40;3.83;;;2.30;;
10450;SDS011;5273;51.290;6.918;2024-02-21T12:48:07;10.68;;;3.25;;
10450;SDS011;5273;51.290;6.918;2024-02-21T12:50:34;5.00;;;2.53;;
10450;SDS011;5273;51.290;6.918;2024-02-21T12:53:02;7.95;;;2.85;;
10450;SDS011;5273;51.290;6.918;2024-02-21T12:55:29;8.43;;;2.78;;
10450;SDS011;5273;51.290;6.918;2024-02-21T12:57:56;5.57;;;2.58;;
10450;SDS011;5273;51.290;6.918;2024-02-21T13:00:23;6.68;;;3.15;;
10450;SDS011;5273;51.290;6.918;2024-02-21T13:02:52;8.15;;;2.45;;
10450;SDS011;5273;51.290;6.918;2024-02-21T13:05:19;5.63;;;2.28;;
10450;SDS011;5273;51.290;6.918;2024-02-21T13:07:46;7.05;;;2.78;;
10450;SDS011;5273;51.290;6.918;2024-02-21T13:10:16;6.95;;;2.67;;
10450;SDS011;5273;51.290;6.918;2024-02-21T13:12:43;6.68;;;2.75;;
10450;SDS011;5273;51.290;6.918;2024-02-21T13:15:10;4.90;;;2.55;;
10450;SDS011;5273;51.290;6.918;2024-02-21T13:17:37;7.22;;;2.67;;
10450;SDS011;5273;51.290;6.918;2024-02-21T13:20:05;5.35;;;2.30;;
10450;SDS011;5273;51.290;6.918;2024-02-21T13:22:33;3.67;;;2.47;;
10450;SDS011;5273;51.290;6.918;2024-02-21T13:25:00;11.52;;;2.72;;
10450;SDS011;5273;51.290;6.918;2024-02-21T13:27:28;4.45;;;2.45;;
10450;SDS011;5273;51.290;6.918;2024-02-21T13:29:55;9.23;;;2.90;;
10450;SDS011;5273;51.290;6.918;2024-02-21T13:32:23;7.70;;;2.53;;
10450;SDS011;5273;51.290;6.918;2024-02-21T13:34:51;7.67;;;2.60;;
10450;SDS011;5273;51.290;6.918;2024-02-21T13:37:17;6.68;;;2.90;;
10450;SDS011;5273;51.290;6.918;2024-02-21T13:39:44;3.45;;;2.90;;
10450;SDS011;5273;51.290;6.918;2024-02-21T13:42:12;5.60;;;2.10;;
10450;SDS011;5273;51.290;6.918;2024-02-21T13:44:40;4.55;;;2.20;;
10450;SDS011;5273;51.290;6.918;2024-02-21T13:47:07;4.70;;;2.58;;
10450;SDS011;5273;51.290;6.918;2024-02-21T13:49:36;5.22;;;2.50;;
10450;SDS011;5273;51.290;6.918;2024-02-21T13:52:03;6.88;;;2.55;;
10450;SDS011;5273;51.290;6.918;2024-02-21T13:54:30;9.13;;;2.78;;
10450;SDS011;5273;51.290;6.918;2024-02-21T13:56:57;7.90;;;2.60;;
10450;SDS011;5273;51.290;6.918;2024-02-21T13:59:24;7.37;;;2.70;;
10450;SDS011;5273;51.290;6.918;2024-02-21T14:01:53;8.40;;;2.70;;
10450;SDS011;5273;51.290;6.918;2024-02-21T14:04:20;6.63;;;2.50;;
10450;SDS011;5273;51.290;6.918;2024-02-21T14:06:47;5.28;;;2.88;;
10450;SDS011;5273;51.290;6.918;2024-02-21T14:09:14;5.18;;;3.05;;
10450;SDS011;5273;51.290;6.918;2024-02-21T14:11:41;8.38;;;2.95;;
10450;SDS011;5273;51.290;6.918;2024-02-21T14:14:08;4.95;;;1.92;;
10450;SDS011;5273;51.290;6.918;2024-02-21T14:16:34;3.80;;;2.22;;
10450;SDS011;5273;51.290;6.918;2024-02-21T14:19:02;8.10;;;2.30;;
10450;SDS011;5273;51.290;6.918;2024-02-21T14:21:29;6.80;;;2.72;;
10450;SDS011;5273;51.290;6.918;2024-02-21T14:23:57;3.60;;;2.13;;
10450;SDS011;5273;51.290;6.918;2024-02-21T14:26:27;6.20;;;2.47;;
10450;SDS011;5273;51.290;6.918;2024-02-21T14:28:55;5.03;;;2.30;;
10450;SDS011;5273;51.290;6.918;2024-02-21T14:31:22;5.25;;;2.35;;
10450;SDS011;5273;51.290;6.918;2024-02-21T14:33:50;4.13;;;2.10;;
10450;SDS011;5273;51.290;6.918;2024-02-21T14:36:18;4.60;;;2.25;;
10450;SDS011;5273;51.290;6.918;2024-02-21T14:38:45;3.33;;;2.30;;
10450;SDS011;5273;51.290;6.918;2024-02-21T14:41:12;7.22;;;3.08;;
10450;SDS011;5273;51.290;6.918;2024-02-21T14:43:40;10.93;;;3.58;;
10450;SDS011;5273;51.290;6.918;2024-02-21T14:46:08;5.83;;;2.23;;
10450;SDS011;5273;51.290;6.918;2024-02-21T14:48:37;6.18;;;3.28;;
10450;SDS011;5273;51.290;6.918;2024-02-21T14:51:04;8.60;;;2.88;;
10450;SDS011;5273;51.290;6.918;2024-02-21T14:53:32;7.83;;;2.30;;
10450;SDS011;5273;51.290;6.918;2024-02-21T14:55:59;5.32;;;2.72;;